KCAK/CAK METAR and TAF weather

Enter ICAO airport designator
Station Type Date Time Source
KCAK METAR 2021/05/11 22:51 UTC NOAA

KCAK 112251Z 35009KT 10SM SCT070 10/M02 A3023 RMK AO2 SLP242 T01001022


Station Type Date Time Source
KCAK Decoded METAR 2021/05/11 22:51 UTC NOAA

AKRON-CANTON REGIONAL AIRPORT , OH, United States (KCAK) 40-55N 081-27W 377M
May 11, 2021 - 06:51 PM EDT / 2021.05.11 2251 UTC
Wind: from the N (350 degrees) at 10 MPH (9 KT):0
Visibility: 10 mile(s):0
Sky conditions: partly cloudy
Temperature: 50.0 F (10.0 C)
Dew Point: 28.0 F (-2.2 C)
Relative Humidity: 42%
Pressure (altimeter): 30.23 in. Hg (1023 hPa)
ob: KCAK 112251Z 35009KT 10SM SCT070 10/M02 A3023 RMK AO2 SLP242 T01001022
cycle: 23

Station Type Date Time Source
KCAK TAF 2021/05/11 18:21 UTC NOAA

TAF KCAK 111720Z 1118/1218 31012G22KT P6SM SCT050
FM112300 32010KT P6SM SCT150
FM120500 VRB02KT P6SM SKC
FM121500 35008KT P6SM FEW250

Example: see airport list